Elmwood, TN (38560)

10:55 PM CDT on August 28, 2014 (GMT -0500)
Commerce | Change Station
CLOSE
Current Station
Personal Weather Station
Location: Watertown, TN
Elevation: 614 ft
Nearby Weather Stations

Elev 614 ft 36.13 °N, 86.12 °W | Updated 1 minute ago

Partly Cloudy
Partly Cloudy
71.4 °F
Feels Like 71.4 °F
N
0.0
Wind Variable Wind from WNW

Today
High -- | Low -- °F
--% Chance of Precip.
Yesterday
High -- | Low -- °F
Precip. -- in
6:11 AM 7:16 PM
Waxing Crescent, 11% visible
Pressure 30.04 in
Visibility 8.0 miles
Clouds Clear
Dew Point 71 °F
Humidity 99%
Rainfall 0.00 in
Snow Depth Not available.
UV 0 out of 12
Pollen 10.50 out of 12
Ozone Good
PM2.5 Moderate
Flu Activity Not available.
METAR KSRB 290335Z AUTO 00000KT 8SM CLR 22/22 A3004 RMK

More Conditions Fewer Conditions

Pressure 30.04 in
Visibility 8.0 miles
Clouds Clear
Dew Point 71 °F
Humidity 99%
Rainfall 0.00 in
Snow Depth Not available.
UV 0 out of 12
Pollen 10.50 out of 12
Ozone Good
PM2.5 Moderate
Flu Activity Not available.
METAR KSRB 290335Z AUTO 00000KT 8SM CLR 22/22 A3004 RMK

More Conditions Fewer Conditions

10-Day Weather Forecast

Almanac

Astronomy

Aug. 28, 2014 Rise Set
Actual Time 6:11 AM CDT 7:16 PM CDT
Civil Twilight 5:45 AM CDT 7:43 PM CDT
Nautical Twilight 5:13 AM CDT 8:14 PM CDT
Astronomical Twilight 4:41 AM CDT 8:47 PM CDT
Moon 8:57 AM CDT (8/28) 8:47 PM CDT (8/28)
Length of Visible Light 13h 57m
Length of Day
13h 04m
Tomorrow will be 2m 10s shorter.
Waxing Crescent, 11% of the Moon is Illuminated
Today
Waxing Crescent
Sep 2
First Quarter
Sep 8
Full
Sep 15
Last Quarter
Sep 24
New

Today's Extremes

State Highs State Lows

Community

WunderPhotos

Upload Photos

1,748,182 photos uploaded!

Nearby

Air Quality

  Air Quality AQ Index Pollutant
Yesterday Moderate
PM2.5
Yesterday Good
OZONE
Current Moderate
PM2.5
Current Good
OZONE
Thursday Moderate
OZONE
Thursday Moderate
PM2.5
Friday Moderate
OZONE
Friday Moderate
PM2.5
Saturday Moderate
PM2.5
Saturday Moderate
OZONE

Snow Depth

Station Depth Elevation
No new snow has been reported.

Earthquake Activity

City Distance Mag. Time & Date
No recent earthquake activity has been reported nearby.
Minimum magnitude displayed is 2.5.

Coastal Water Temperatures

Place Temperature
No Stations Reporting

Nearby Weather Stations